Time;durP1;ratioP1;P1;durP2;ratioP2;P2;SDS_P1;SDS_P2;PMS_P1;PMS_P2;Temp;Humidity;BMP_temperature;BMP_pressure;BME280_temperature;BME280_humidity;BME280_pressure;Samples;Min_cycle;Max_cycle;Signal;HPM_P1;HPM_P2
2021/05/26 00:00:05;;;;;;;6.35;4.05;;;;;;;;;;5110313;28;20024;-67
2021/05/26 00:05:01;;;;;;;8.23;3.88;;;;;;;;;;5110621;27;20509;-68
2021/05/26 00:07:27;;;;;;;5.85;3.55;;;;;;;;;;5109401;28;20032;-68
2021/05/26 00:09:53;;;;;;;7.25;3.58;;;;;;;;;;5110126;28;20016;-68
2021/05/26 00:14:08;;;;;;;5.68;3.85;;;;;;;;;;5110517;27;20403;-67
2021/05/26 00:16:37;;;;;;;12.63;4.15;;;;;;;;;;5110017;28;20031;-67
2021/05/26 00:19:03;;;;;;;9.55;4.85;;;;;;;;;;5109027;28;20031;-67
2021/05/26 00:21:30;;;;;;;13.90;4.68;;;;;;;;;;5109018;28;20020;-67
2021/05/26 00:25:29;;;;;;;7.28;4.18;;;;;;;;;;5110086;27;20839;-67
2021/05/26 00:27:58;;;;;;;6.10;4.20;;;;;;;;;;5110631;28;20499;-67
2021/05/26 00:30:30;;;;;;;6.68;4.00;;;;;;;;;;5109228;28;20020;-67
2021/05/26 00:32:56;;;;;;;6.53;3.97;;;;;;;;;;5109892;28;20069;-67
2021/05/26 00:35:23;;;;;;;6.32;3.83;;;;;;;;;;5110284;28;20081;-67
2021/05/26 00:37:49;;;;;;;6.03;4.00;;;;;;;;;;5109840;28;20447;-67
2021/05/26 00:40:16;;;;;;;6.72;4.07;;;;;;;;;;5108911;28;20035;-67
2021/05/26 00:42:42;;;;;;;7.85;3.33;;;;;;;;;;5110210;28;20100;-67
2021/05/26 00:46:41;;;;;;;8.65;3.95;;;;;;;;;;5110267;27;20446;-67
2021/05/26 00:49:08;;;;;;;5.28;3.08;;;;;;;;;;5110695;28;20024;-67
2021/05/26 00:51:34;;;;;;;6.78;3.38;;;;;;;;;;5109095;28;20038;-67
2021/05/26 00:54:00;;;;;;;6.53;3.35;;;;;;;;;;5110031;28;20028;-67
2021/05/26 00:56:37;;;;;;;7.32;3.63;;;;;;;;;;5069839;28;20427;-67
2021/05/26 00:59:05;;;;;;;6.28;3.70;;;;;;;;;;5069510;28;20407;-67
2021/05/26 01:01:31;;;;;;;5.45;3.70;;;;;;;;;;5068611;28;20017;-67
2021/05/26 01:04:35;;;;;;;7.80;3.75;;;;;;;;;;5110441;27;20416;-67
2021/05/26 01:08:39;;;;;;;6.78;3.83;;;;;;;;;;5110675;27;20529;-67
2021/05/26 01:11:06;;;;;;;8.43;3.80;;;;;;;;;;5110500;28;20051;-67
2021/05/26 01:14:06;;;;;;;6.80;3.72;;;;;;;;;;5110088;27;20412;-67
2021/05/26 01:16:32;;;;;;;6.80;3.88;;;;;;;;;;5110483;28;20028;-67
2021/05/26 01:18:58;;;;;;;8.40;4.20;;;;;;;;;;5110360;28;20094;-67
2021/05/26 01:22:32;;;;;;;7.32;4.28;;;;;;;;;;5110455;27;20420;-67
2021/05/26 01:27:05;;;;;;;8.57;3.72;;;;;;;;;;5110155;27;20931;-67
2021/05/26 01:29:31;;;;;;;7.65;4.45;;;;;;;;;;5126512;28;20052;-67
2021/05/26 01:31:59;;;;;;;7.50;4.22;;;;;;;;;;5110357;28;20020;-67
2021/05/26 01:35:17;;;;;;;4.97;3.45;;;;;;;;;;5110082;27;20462;-67
2021/05/26 01:37:45;;;;;;;7.75;3.75;;;;;;;;;;5110467;28;20028;-67
2021/05/26 01:41:00;;;;;;;6.07;3.85;;;;;;;;;;5110095;27;20392;-67
2021/05/26 01:43:27;;;;;;;7.43;4.60;;;;;;;;;;5110454;28;20024;-67
2021/05/26 01:46:56;;;;;;;7.28;4.05;;;;;;;;;;5069899;28;20464;-67
2021/05/26 01:49:22;;;;;;;6.90;3.47;;;;;;;;;;5069708;28;20481;-68
2021/05/26 01:51:49;;;;;;;5.95;3.95;;;;;;;;;;5070140;28;20017;-68
2021/05/26 01:54:15;;;;;;;6.32;4.13;;;;;;;;;;5069782;28;20017;-67
2021/05/26 01:56:41;;;;;;;7.35;4.00;;;;;;;;;;5069348;28;20102;-68
2021/05/26 01:59:07;;;;;;;6.18;3.63;;;;;;;;;;5068525;28;20027;-68
2021/05/26 02:01:34;;;;;;;7.43;4.72;;;;;;;;;;5069685;28;20108;-67
2021/05/26 02:10:04;;;;;;;7.50;4.43;;;;;;;;;;5110269;27;20388;-67
2021/05/26 02:12:33;;;;;;;9.82;4.30;;;;;;;;;;5109222;28;20051;-67
2021/05/26 02:16:03;;;;;;;5.15;3.45;;;;;;;;;;5110469;27;20408;-67
2021/05/26 02:18:29;;;;;;;6.70;3.38;;;;;;;;;;5125909;28;20040;-67
2021/05/26 02:22:34;;;;;;;5.30;3.92;;;;;;;;;;5110537;27;20521;-67
2021/05/26 02:25:01;;;;;;;7.13;4.13;;;;;;;;;;5110653;28;20099;-67
2021/05/26 02:28:19;;;;;;;5.20;3.40;;;;;;;;;;5110655;27;20466;-67
2021/05/26 02:30:45;;;;;;;5.53;3.40;;;;;;;;;;5110582;28;20529;-67
2021/05/26 02:35:40;;;;;;;7.18;4.25;;;;;;;;;;5070344;28;20399;-67
2021/05/26 02:38:06;;;;;;;8.23;4.25;;;;;;;;;;5070149;28;20020;-67
2021/05/26 02:40:33;;;;;;;8.90;5.00;;;;;;;;;;5069909;28;20040;-67
2021/05/26 02:43:00;;;;;;;11.18;5.65;;;;;;;;;;5069909;28;20027;-67
2021/05/26 02:47:20;;;;;;;6.85;4.50;;;;;;;;;;5069965;27;20426;-67
2021/05/26 02:49:46;;;;;;;7.68;4.80;;;;;;;;;;5070104;28;20557;-67
2021/05/26 02:52:12;;;;;;;11.40;5.78;;;;;;;;;;5069638;28;20081;-67
2021/05/26 02:54:38;;;;;;;9.90;4.95;;;;;;;;;;5070059;28;20388;-67
2021/05/26 02:57:05;;;;;;;9.70;5.45;;;;;;;;;;5069993;28;20520;-67
2021/05/26 02:59:31;;;;;;;8.10;5.10;;;;;;;;;;5069780;28;20031;-67
2021/05/26 03:01:57;;;;;;;9.73;5.10;;;;;;;;;;5069962;28;20388;-67
2021/05/26 03:05:36;;;;;;;7.38;5.15;;;;;;;;;;5069633;28;20408;-67
2021/05/26 03:08:02;;;;;;;7.65;5.00;;;;;;;;;;5068898;28;20116;-67
2021/05/26 03:12:40;;;;;;;14.00;5.47;;;;;;;;;;5110219;27;20389;-67
2021/05/26 03:15:17;;;;;;;7.15;4.30;;;;;;;;;;5109334;28;20047;-67
2021/05/26 03:17:43;;;;;;;9.32;5.05;;;;;;;;;;5110723;28;20111;-67
2021/05/26 03:20:13;;;;;;;10.10;5.13;;;;;;;;;;5110045;28;20058;-67
2021/05/26 03:24:43;;;;;;;8.40;4.85;;;;;;;;;;5110429;27;20585;-67
2021/05/26 03:27:39;;;;;;;9.90;5.13;;;;;;;;;;5110096;27;20847;-67
2021/05/26 03:30:07;;;;;;;10.68;7.00;;;;;;;;;;5110496;28;20024;-67
2021/05/26 03:32:33;;;;;;;14.02;7.15;;;;;;;;;;5110396;28;20016;-67
2021/05/26 03:35:00;;;;;;;18.58;6.78;;;;;;;;;;5109019;28;20468;-67
2021/05/26 03:37:26;;;;;;;11.27;6.93;;;;;;;;;;5110319;28;20031;-68
2021/05/26 03:39:52;;;;;;;13.55;8.13;;;;;;;;;;5110275;28;20054;-68
2021/05/26 03:42:18;;;;;;;10.02;7.22;;;;;;;;;;5109855;28;20039;-68
2021/05/26 03:44:45;;;;;;;17.85;8.38;;;;;;;;;;5108874;28;20031;-68
2021/05/26 03:47:11;;;;;;;15.85;9.00;;;;;;;;;;5108758;28;20446;-68
2021/05/26 03:50:45;;;;;;;13.13;8.65;;;;;;;;;;5070115;28;20395;-68
2021/05/26 03:55:18;;;;;;;14.20;8.32;;;;;;;;;;5110134;27;20874;-67
2021/05/26 03:57:44;;;;;;;21.58;8.82;;;;;;;;;;5110362;28;20115;-67
2021/05/26 04:00:12;;;;;;;17.35;8.45;;;;;;;;;;5110381;28;20016;-67
2021/05/26 04:02:38;;;;;;;12.10;7.85;;;;;;;;;;5109957;28;20035;-67
2021/05/26 04:05:43;;;;;;;14.85;7.07;;;;;;;;;;5110438;27;20381;-67
2021/05/26 04:08:09;;;;;;;19.02;8.30;;;;;;;;;;5110391;28;20061;-67
2021/05/26 04:11:30;;;;;;;14.52;7.45;;;;;;;;;;5110603;27;20469;-67
2021/05/26 04:13:56;;;;;;;11.30;7.32;;;;;;;;;;5110545;28;20073;-67
2021/05/26 04:16:23;;;;;;;15.70;6.55;;;;;;;;;;5125715;28;20507;-68
2021/05/26 04:18:49;;;;;;;11.52;6.70;;;;;;;;;;5110379;28;20357;-67
2021/05/26 04:22:29;;;;;;;14.20;6.90;;;;;;;;;;5069854;28;20920;-67
2021/05/26 04:24:56;;;;;;;11.50;6.47;;;;;;;;;;5069445;28;20029;-67
2021/05/26 04:27:22;;;;;;;18.60;6.18;;;;;;;;;;5069820;28;20025;-67
2021/05/26 04:32:24;;;;;;;9.60;6.40;;;;;;;;;;5110786;27;20388;-67
2021/05/26 04:34:51;;;;;;;11.30;5.22;;;;;;;;;;5110428;28;20024;-67
2021/05/26 04:37:56;;;;;;;8.18;4.88;;;;;;;;;;5109991;27;20473;-67
2021/05/26 04:41:37;;;;;;;12.82;5.53;;;;;;;;;;5110484;27;20416;-67
2021/05/26 04:44:04;;;;;;;9.00;4.60;;;;;;;;;;5125952;28;20024;-67
2021/05/26 04:46:30;;;;;;;12.13;5.22;;;;;;;;;;5110441;28;20053;-67
2021/05/26 04:48:56;;;;;;;15.52;4.78;;;;;;;;;;5110410;28;20028;-67
2021/05/26 04:51:22;;;;;;;8.70;4.63;;;;;;;;;;5110101;28;20441;-67
2021/05/26 04:53:48;;;;;;;9.57;4.70;;;;;;;;;;5110514;28;20024;-67
2021/05/26 04:56:15;;;;;;;7.72;3.92;;;;;;;;;;5110221;28;20030;-67
2021/05/26 04:58:42;;;;;;;12.55;4.50;;;;;;;;;;5109759;28;20020;-67
2021/05/26 05:02:22;;;;;;;10.10;4.35;;;;;;;;;;5110608;27;20396;-71
2021/05/26 05:04:48;;;;;;;12.35;4.38;;;;;;;;;;5110480;28;20031;-73
2021/05/26 05:07:14;;;;;;;6.10;4.00;;;;;;;;;;5110089;28;20016;-72
2021/05/26 05:09:41;;;;;;;5.93;3.95;;;;;;;;;;5110539;28;20030;-72
2021/05/26 05:13:39;;;;;;;6.38;3.63;;;;;;;;;;5067847;28;20423;-74
2021/05/26 05:16:05;;;;;;;10.38;4.05;;;;;;;;;;5069884;28;20029;-73
2021/05/26 05:20:50;;;;;;;8.70;3.88;;;;;;;;;;5068160;28;20420;-73
2021/05/26 05:23:17;;;;;;;6.80;3.95;;;;;;;;;;5069340;28;20024;-74
2021/05/26 05:25:43;;;;;;;7.90;3.50;;;;;;;;;;5068695;28;20119;-74
2021/05/26 05:28:29;;;;;;;8.10;3.38;;;;;;;;;;5101353;27;20318;-71
2021/05/26 05:30:55;;;;;;;8.63;3.63;;;;;;;;;;5092712;28;20086;-71
2021/05/26 05:33:22;;;;;;;8.50;3.53;;;;;;;;;;5085680;28;20510;-71
2021/05/26 05:35:48;;;;;;;5.53;3.15;;;;;;;;;;5069788;28;20024;-70
2021/05/26 05:38:15;;;;;;;13.48;3.42;;;;;;;;;;5085044;28;20027;-70
2021/05/26 05:40:44;;;;;;;13.43;3.75;;;;;;;;;;5088246;28;20020;-71
2021/05/26 05:43:11;;;;;;;12.38;3.28;;;;;;;;;;5085100;28;20390;-71
2021/05/26 05:47:26;;;;;;;9.57;3.15;;;;;;;;;;5029053;28;20418;-72
2021/05/26 05:49:53;;;;;;;7.60;2.65;;;;;;;;;;5029818;28;20030;-71
2021/05/26 05:53:13;;;;;;;5.25;2.95;;;;;;;;;;5109665;27;20405;-72
2021/05/26 05:55:39;;;;;;;7.32;3.22;;;;;;;;;;5107586;28;20035;-71
2021/05/26 05:58:05;;;;;;;10.15;3.70;;;;;;;;;;5108873;28;20059;-72
2021/05/26 06:00:58;;;;;;;7.30;2.92;;;;;;;;;;5109941;27;20412;-72
2021/05/26 06:03:25;;;;;;;9.65;3.53;;;;;;;;;;5109863;28;20502;-71
2021/05/26 06:05:51;;;;;;;8.80;3.00;;;;;;;;;;5110116;28;20102;-71
2021/05/26 06:08:17;;;;;;;14.93;4.25;;;;;;;;;;5109747;28;20024;-72
2021/05/26 06:10:44;;;;;;;7.25;2.85;;;;;;;;;;5110317;28;20024;-71
2021/05/26 06:13:10;;;;;;;7.10;3.10;;;;;;;;;;5110281;28;20469;-73
2021/05/26 06:15:37;;;;;;;7.72;2.63;;;;;;;;;;5108319;28;20053;-73
2021/05/26 06:18:04;;;;;;;5.82;2.70;;;;;;;;;;5109999;28;20060;-72
2021/05/26 06:20:30;;;;;;;5.22;2.33;;;;;;;;;;5105828;28;20032;-71
2021/05/26 06:22:56;;;;;;;7.65;2.70;;;;;;;;;;5098906;28;20250;-73
2021/05/26 06:25:22;;;;;;;17.10;3.25;;;;;;;;;;5103662;28;20020;-73
2021/05/26 06:27:49;;;;;;;8.32;2.38;;;;;;;;;;5106443;28;20024;-73
2021/05/26 06:30:15;;;;;;;9.98;3.58;;;;;;;;;;5109885;28;20044;-73
2021/05/26 06:32:41;;;;;;;6.43;2.70;;;;;;;;;;5128858;28;20088;-73
2021/05/26 06:35:20;;;;;;;12.63;3.13;;;;;;;;;;5108621;27;20955;-71
2021/05/26 06:37:47;;;;;;;10.40;3.17;;;;;;;;;;5107971;28;20506;-73
2021/05/26 06:40:13;;;;;;;6.68;2.30;;;;;;;;;;5108141;28;20020;-73
2021/05/26 06:42:39;;;;;;;6.88;2.42;;;;;;;;;;5106714;28;20024;-70
2021/05/26 06:45:06;;;;;;;6.97;2.45;;;;;;;;;;5107903;28;20024;-70
2021/05/26 06:47:32;;;;;;;6.22;2.40;;;;;;;;;;5106728;28;20020;-72
2021/05/26 06:49:59;;;;;;;10.07;3.13;;;;;;;;;;5108730;28;20114;-72
2021/05/26 06:52:25;;;;;;;6.22;2.67;;;;;;;;;;5109823;28;20256;-75
2021/05/26 06:57:00;;;;;;;8.52;3.00;;;;;;;;;;5069934;28;21125;-73
2021/05/26 06:59:26;;;;;;;5.85;2.75;;;;;;;;;;5069671;28;20033;-72
2021/05/26 07:01:52;;;;;;;6.70;1.95;;;;;;;;;;5068327;28;20052;-72
2021/05/26 07:04:19;;;;;;;7.18;2.58;;;;;;;;;;5065386;28;20029;-73
2021/05/26 07:06:45;;;;;;;8.70;2.70;;;;;;;;;;5069353;28;20071;-74
2021/05/26 07:09:11;;;;;;;7.40;2.45;;;;;;;;;;5068051;28;20517;-72
2021/05/26 07:11:37;;;;;;;6.57;3.28;;;;;;;;;;5069198;28;20017;-74
2021/05/26 07:14:03;;;;;;;5.13;2.45;;;;;;;;;;5069307;28;20561;-71
2021/05/26 07:16:30;;;;;;;5.93;2.55;;;;;;;;;;5068384;28;20162;-74
2021/05/26 07:18:59;;;;;;;5.95;2.35;;;;;;;;;;5068625;28;20025;-72
2021/05/26 07:21:26;;;;;;;10.90;2.95;;;;;;;;;;5067693;28;20036;-72
2021/05/26 07:24:53;;;;;;;4.65;2.17;;;;;;;;;;5069045;28;20387;-71
2021/05/26 07:27:19;;;;;;;7.00;2.35;;;;;;;;;;5065890;28;20115;-73
2021/05/26 07:29:45;;;;;;;6.95;2.97;;;;;;;;;;5065190;28;20033;-72
2021/05/26 07:32:11;;;;;;;7.53;2.60;;;;;;;;;;5067671;28;20095;-73
2021/05/26 07:34:37;;;;;;;7.00;1.95;;;;;;;;;;5066922;28;20021;-74
2021/05/26 07:37:04;;;;;;;5.43;2.30;;;;;;;;;;5066839;28;20552;-72
2021/05/26 07:39:34;;;;;;;6.32;2.10;;;;;;;;;;5065428;28;20036;-73
2021/05/26 07:42:01;;;;;;;6.15;1.98;;;;;;;;;;5066768;28;20029;-72
2021/05/26 07:44:27;;;;;;;8.23;2.45;;;;;;;;;;5069090;28;20120;-74
2021/05/26 07:46:54;;;;;;;10.48;2.50;;;;;;;;;;5068912;28;20095;-73
2021/05/26 07:49:21;;;;;;;6.80;2.30;;;;;;;;;;5067885;28;20024;-75
2021/05/26 07:51:51;;;;;;;6.75;2.22;;;;;;;;;;5069722;28;20369;-73
2021/05/26 07:54:18;;;;;;;6.38;2.20;;;;;;;;;;5069481;28;20017;-71
2021/05/26 07:56:44;;;;;;;5.90;2.28;;;;;;;;;;5069274;28;20362;-72
2021/05/26 07:59:10;;;;;;;6.43;2.00;;;;;;;;;;5069174;28;20032;-70
2021/05/26 08:02:18;;;;;;;3.53;2.03;;;;;;;;;;5109563;27;20791;-69
2021/05/26 08:04:44;;;;;;;8.38;2.15;;;;;;;;;;5110195;28;20020;-70
2021/05/26 08:07:11;;;;;;;9.52;2.30;;;;;;;;;;5110022;28;20024;-70
2021/05/26 08:09:39;;;;;;;6.03;2.58;;;;;;;;;;5109302;28;20093;-70
2021/05/26 08:12:08;;;;;;;6.60;2.30;;;;;;;;;;5108694;28;20016;-69
2021/05/26 08:14:34;;;;;;;10.13;2.08;;;;;;;;;;5110182;28;20433;-70
2021/05/26 08:17:01;;;;;;;5.43;2.30;;;;;;;;;;5107997;28;20027;-71
2021/05/26 08:19:27;;;;;;;5.60;2.08;;;;;;;;;;5110014;28;20027;-70
2021/05/26 08:21:53;;;;;;;4.07;2.00;;;;;;;;;;5106754;28;20040;-70
2021/05/26 08:24:19;;;;;;;5.28;2.58;;;;;;;;;;5107773;28;20048;-70
2021/05/26 08:26:48;;;;;;;7.72;2.55;;;;;;;;;;5106218;28;20024;-76
2021/05/26 08:29:14;;;;;;;4.18;2.13;;;;;;;;;;5107770;28;20023;-71
2021/05/26 08:32:38;;;;;;;7.35;2.67;;;;;;;;;;5088975;28;20418;-73
2021/05/26 08:36:07;;;;;;;4.68;2.22;;;;;;;;;;5067794;28;20496;-70
2021/05/26 08:38:35;;;;;;;4.85;2.58;;;;;;;;;;5068408;28;20679;-69
2021/05/26 08:41:04;;;;;;;7.80;3.05;;;;;;;;;;5066396;28;20156;-69
2021/05/26 08:43:31;;;;;;;6.10;2.47;;;;;;;;;;5066571;28;20108;-70
2021/05/26 08:45:58;;;;;;;5.28;2.15;;;;;;;;;;5066892;28;20548;-71
2021/05/26 08:48:27;;;;;;;5.05;2.72;;;;;;;;;;5069285;28;20500;-71
2021/05/26 08:50:53;;;;;;;9.48;2.55;;;;;;;;;;5068955;28;20059;-71
2021/05/26 08:53:20;;;;;;;6.00;2.22;;;;;;;;;;5063746;28;20420;-70
2021/05/26 08:55:46;;;;;;;5.53;2.55;;;;;;;;;;5064897;28;20044;-70
2021/05/26 08:58:47;;;;;;;8.93;2.45;;;;;;;;;;5107587;27;20396;-71
2021/05/26 09:03:23;;;;;;;4.25;2.08;;;;;;;;;;5109344;27;21050;-74
2021/05/26 09:05:55;;;;;;;10.68;2.85;;;;;;;;;;5107611;28;20106;-77
2021/05/26 09:08:21;;;;;;;4.80;2.13;;;;;;;;;;5110214;28;20035;-75
2021/05/26 09:10:52;;;;;;;5.25;2.75;;;;;;;;;;5108800;28;20080;-74
2021/05/26 09:14:37;;;;;;;6.78;2.65;;;;;;;;;;5110384;27;20791;-75
2021/05/26 09:17:10;;;;;;;5.40;2.95;;;;;;;;;;5110257;28;20031;-74
2021/05/26 09:19:36;;;;;;;6.40;2.58;;;;;;;;;;5109752;28;20024;-69
2021/05/26 09:22:09;;;;;;;8.68;2.97;;;;;;;;;;5110105;28;20439;-68
2021/05/26 09:24:35;;;;;;;5.57;2.35;;;;;;;;;;5108744;28;20031;-69
2021/05/26 09:27:46;;;;;;;5.30;2.60;;;;;;;;;;5110049;27;20396;-70
2021/05/26 09:30:13;;;;;;;8.68;2.50;;;;;;;;;;5110308;28;20111;-69
2021/05/26 09:32:39;;;;;;;5.53;2.83;;;;;;;;;;5095552;28;20055;-70
2021/05/26 09:35:06;;;;;;;5.97;2.20;;;;;;;;;;5108322;28;20101;-68
2021/05/26 09:37:37;;;;;;;5.90;2.65;;;;;;;;;;5109877;28;20020;-70
2021/05/26 09:40:10;;;;;;;4.13;2.70;;;;;;;;;;5107641;28;20081;-68
2021/05/26 09:42:46;;;;;;;9.68;2.75;;;;;;;;;;5109875;28;20065;-69
2021/05/26 09:45:13;;;;;;;6.15;2.97;;;;;;;;;;5109793;28;20082;-69
2021/05/26 09:47:43;;;;;;;7.47;2.67;;;;;;;;;;5107982;28;20123;-70
2021/05/26 09:50:24;;;;;;;6.68;2.70;;;;;;;;;;5108232;28;20460;-71
2021/05/26 09:52:56;;;;;;;4.65;2.53;;;;;;;;;;5107072;28;20020;-69
2021/05/26 09:56:04;;;;;;;8.45;3.20;;;;;;;;;;5106286;27;21158;-71
2021/05/26 09:58:30;;;;;;;5.55;2.75;;;;;;;;;;5108243;28;20092;-70
2021/05/26 10:00:57;;;;;;;4.25;2.42;;;;;;;;;;5105507;28;20027;-69
2021/05/26 10:03:23;;;;;;;6.43;2.65;;;;;;;;;;5108212;28;20039;-70
2021/05/26 10:05:49;;;;;;;7.63;2.85;;;;;;;;;;5106756;28;20020;-69
2021/05/26 10:08:16;;;;;;;9.50;2.97;;;;;;;;;;5108041;28;20105;-70
2021/05/26 10:10:46;;;;;;;7.30;2.80;;;;;;;;;;5109828;28;20027;-69
2021/05/26 10:13:13;;;;;;;7.57;3.17;;;;;;;;;;5107420;28;20381;-69
2021/05/26 10:15:40;;;;;;;4.40;2.67;;;;;;;;;;5104623;28;20035;-75
2021/05/26 10:18:06;;;;;;;6.75;2.92;;;;;;;;;;5105569;28;20032;-77
2021/05/26 10:20:36;;;;;;;9.90;3.42;;;;;;;;;;5107538;28;20042;-76
2021/05/26 10:23:03;;;;;;;6.80;3.10;;;;;;;;;;5107334;28;20016;-75
2021/05/26 10:25:30;;;;;;;8.10;3.00;;;;;;;;;;5107122;28;20032;-75
2021/05/26 10:27:57;;;;;;;5.90;3.15;;;;;;;;;;5107633;28;20118;-75
2021/05/26 10:30:26;;;;;;;9.40;3.13;;;;;;;;;;5106719;28;20024;-75
2021/05/26 10:33:05;;;;;;;6.32;3.28;;;;;;;;;;5107069;28;20016;-73
2021/05/26 10:35:32;;;;;;;5.90;2.92;;;;;;;;;;5105587;28;20036;-75
2021/05/26 10:38:08;;;;;;;9.70;3.17;;;;;;;;;;5104921;28;20024;-73
2021/05/26 10:40:37;;;;;;;6.65;3.17;;;;;;;;;;5105501;28;20024;-74
2021/05/26 10:43:16;;;;;;;4.95;2.83;;;;;;;;;;5106485;28;20028;-74
2021/05/26 10:45:42;;;;;;;7.65;3.38;;;;;;;;;;5104696;28;20028;-74
2021/05/26 10:48:08;;;;;;;5.88;3.20;;;;;;;;;;5105604;28;20455;-73
2021/05/26 10:50:52;;;;;;;8.77;3.40;;;;;;;;;;5106281;28;20055;-73
2021/05/26 10:53:19;;;;;;;7.68;3.08;;;;;;;;;;5106052;28;20047;-74
2021/05/26 10:55:47;;;;;;;5.15;2.78;;;;;;;;;;5105797;28;20739;-73
2021/05/26 10:58:13;;;;;;;12.32;3.35;;;;;;;;;;5105418;28;20110;-74
2021/05/26 11:00:40;;;;;;;6.55;3.42;;;;;;;;;;5106994;28;20028;-74
2021/05/26 11:03:28;;;;;;;3.72;2.80;;;;;;;;;;5106881;28;20015;-75
2021/05/26 11:05:54;;;;;;;6.97;3.42;;;;;;;;;;5100269;28;20032;-72
2021/05/26 11:08:27;;;;;;;6.88;2.95;;;;;;;;;;5092927;28;20031;-75
2021/05/26 11:10:53;;;;;;;5.63;3.40;;;;;;;;;;5091332;28;20034;-72
2021/05/26 11:13:19;;;;;;;7.88;3.60;;;;;;;;;;5091846;28;20032;-75
2021/05/26 11:15:47;;;;;;;5.85;3.10;;;;;;;;;;5091769;28;20055;-74
2021/05/26 11:18:29;;;;;;;13.00;5.72;;;;;;;;;;5093688;28;20452;-72
2021/05/26 11:20:55;;;;;;;7.03;3.20;;;;;;;;;;5093842;28;20028;-73
2021/05/26 11:23:22;;;;;;;6.85;3.20;;;;;;;;;;5094748;28;20759;-71
2021/05/26 11:25:52;;;;;;;6.68;2.97;;;;;;;;;;5094552;28;20031;-71
2021/05/26 11:28:29;;;;;;;5.70;3.20;;;;;;;;;;5095054;28;20035;-71
2021/05/26 11:31:05;;;;;;;14.70;3.83;;;;;;;;;;5094464;28;20020;-71
2021/05/26 11:33:31;;;;;;;8.30;3.72;;;;;;;;;;5094213;28;20066;-71
2021/05/26 11:36:09;;;;;;;7.43;2.97;;;;;;;;;;5094335;28;20028;-72
2021/05/26 11:38:35;;;;;;;5.13;3.25;;;;;;;;;;5094288;28;20499;-71
2021/05/26 11:41:02;;;;;;;6.68;3.17;;;;;;;;;;5093844;28;20519;-71
2021/05/26 11:43:32;;;;;;;8.50;2.67;;;;;;;;;;5093359;28;20020;-71
2021/05/26 11:46:02;;;;;;;11.70;3.80;;;;;;;;;;5093875;28;20487;-71
2021/05/26 11:48:29;;;;;;;5.10;3.22;;;;;;;;;;5094481;28;20027;-70
2021/05/26 11:50:55;;;;;;;8.15;3.30;;;;;;;;;;5094252;28;20047;-70
2021/05/26 11:53:21;;;;;;;4.78;2.63;;;;;;;;;;5093457;28;20023;-71
2021/05/26 11:55:49;;;;;;;11.55;3.42;;;;;;;;;;5093784;28;20514;-71
2021/05/26 11:58:29;;;;;;;7.55;3.33;;;;;;;;;;5092882;28;20492;-71
2021/05/26 12:01:00;;;;;;;6.50;2.95;;;;;;;;;;5091868;28;20028;-72
2021/05/26 12:03:29;;;;;;;8.90;3.05;;;;;;;;;;5094202;28;20396;-72
2021/05/26 12:05:56;;;;;;;10.23;3.58;;;;;;;;;;5094436;28;20048;-71
2021/05/26 12:08:24;;;;;;;5.72;2.60;;;;;;;;;;5092846;28;20434;-73
2021/05/26 12:11:00;;;;;;;11.90;3.25;;;;;;;;;;5094481;28;20375;-72
2021/05/26 12:13:28;;;;;;;7.22;2.80;;;;;;;;;;5093031;28;20031;-72
2021/05/26 12:15:56;;;;;;;6.47;2.70;;;;;;;;;;5093520;28;20047;-72
2021/05/26 12:18:22;;;;;;;7.47;3.10;;;;;;;;;;5093245;28;20539;-72
2021/05/26 12:20:50;;;;;;;9.02;2.88;;;;;;;;;;5093941;28;20478;-72
2021/05/26 12:23:29;;;;;;;11.38;2.75;;;;;;;;;;5090668;28;20020;-71
2021/05/26 12:25:57;;;;;;;5.10;2.60;;;;;;;;;;5094054;28;20091;-71
2021/05/26 12:28:24;;;;;;;7.80;3.13;;;;;;;;;;5093596;28;20028;-71
2021/05/26 12:30:51;;;;;;;5.93;3.20;;;;;;;;;;5093567;28;20024;-71
2021/05/26 12:33:17;;;;;;;5.22;2.67;;;;;;;;;;5092201;28;20016;-71
2021/05/26 12:35:44;;;;;;;9.57;3.10;;;;;;;;;;5093421;28;20388;-72
2021/05/26 12:38:17;;;;;;;6.78;3.05;;;;;;;;;;5094417;28;20170;-72
2021/05/26 12:40:44;;;;;;;8.30;2.88;;;;;;;;;;5093702;28;20553;-71
2021/05/26 12:43:26;;;;;;;3.60;2.30;;;;;;;;;;5093072;28;20106;-70
2021/05/26 12:45:52;;;;;;;7.75;2.95;;;;;;;;;;5093620;28;20088;-70
2021/05/26 12:48:18;;;;;;;9.95;3.10;;;;;;;;;;5093686;28;20035;-70
2021/05/26 12:50:45;;;;;;;5.50;2.38;;;;;;;;;;5093066;28;20055;-70
2021/05/26 12:53:12;;;;;;;5.38;2.38;;;;;;;;;;5091982;28;20072;-72
2021/05/26 12:55:39;;;;;;;4.50;2.90;;;;;;;;;;5093078;28;20052;-72
2021/05/26 12:58:06;;;;;;;7.32;3.30;;;;;;;;;;5092951;28;20027;-71
2021/05/26 13:00:32;;;;;;;7.15;3.15;;;;;;;;;;5092910;28;20472;-71
2021/05/26 13:03:09;;;;;;;8.57;3.28;;;;;;;;;;5092783;28;20415;-71
2021/05/26 13:05:37;;;;;;;5.70;3.28;;;;;;;;;;5092772;28;20031;-70
2021/05/26 13:08:11;;;;;;;5.13;2.30;;;;;;;;;;5091751;28;20025;-69
2021/05/26 13:10:51;;;;;;;6.13;3.15;;;;;;;;;;5092359;28;20103;-71
2021/05/26 13:13:17;;;;;;;7.57;2.70;;;;;;;;;;5092809;28;20050;-71
2021/05/26 13:15:44;;;;;;;5.05;2.63;;;;;;;;;;5091642;28;20488;-71
2021/05/26 13:18:11;;;;;;;5.78;2.60;;;;;;;;;;5091444;28;20506;-71
2021/05/26 13:20:39;;;;;;;6.25;3.08;;;;;;;;;;5092498;28;20391;-71
2021/05/26 13:23:07;;;;;;;7.45;3.17;;;;;;;;;;5092485;28;20020;-69
2021/05/26 13:25:33;;;;;;;7.47;2.88;;;;;;;;;;5092230;28;20099;-70
2021/05/26 13:28:01;;;;;;;3.50;2.55;;;;;;;;;;5091467;28;20074;-73
2021/05/26 13:30:29;;;;;;;4.10;2.72;;;;;;;;;;5091240;28;20020;-71
2021/05/26 13:32:56;;;;;;;5.05;2.50;;;;;;;;;;5090872;28;20024;-71
2021/05/26 13:35:23;;;;;;;5.82;2.63;;;;;;;;;;5091125;28;20039;-71
2021/05/26 13:37:49;;;;;;;20.85;3.88;;;;;;;;;;5091245;28;20027;-72
2021/05/26 13:40:16;;;;;;;6.60;3.03;;;;;;;;;;5090313;28;20028;-71
2021/05/26 13:42:42;;;;;;;11.32;3.33;;;;;;;;;;5091207;28;20016;-71
2021/05/26 13:45:10;;;;;;;6.68;2.80;;;;;;;;;;5091428;28;20051;-72
2021/05/26 13:47:36;;;;;;;7.65;3.05;;;;;;;;;;5091456;28;20020;-73
2021/05/26 13:50:03;;;;;;;5.78;2.45;;;;;;;;;;5092085;28;20027;-73
2021/05/26 13:52:29;;;;;;;4.45;2.90;;;;;;;;;;5092159;28;20474;-72
2021/05/26 13:54:55;;;;;;;5.43;2.50;;;;;;;;;;5091885;28;20048;-72
2021/05/26 13:57:24;;;;;;;7.85;3.20;;;;;;;;;;5092306;28;20093;-73
2021/05/26 13:59:50;;;;;;;5.70;2.28;;;;;;;;;;5090373;28;20173;-70
2021/05/26 14:02:17;;;;;;;3.97;2.03;;;;;;;;;;5092459;28;20103;-71
2021/05/26 14:04:43;;;;;;;5.95;2.63;;;;;;;;;;5092537;28;20016;-71
2021/05/26 14:07:09;;;;;;;5.40;2.28;;;;;;;;;;5090997;28;20020;-72
2021/05/26 14:09:35;;;;;;;6.80;2.55;;;;;;;;;;5091065;28;20020;-71
2021/05/26 14:12:02;;;;;;;6.18;2.95;;;;;;;;;;5092440;28;20024;-71
2021/05/26 14:14:30;;;;;;;6.38;3.13;;;;;;;;;;5091990;28;20063;-70
2021/05/26 14:16:56;;;;;;;6.25;2.90;;;;;;;;;;5091059;28;20043;-73
2021/05/26 14:19:23;;;;;;;7.18;2.53;;;;;;;;;;5090863;28;20496;-70
2021/05/26 14:21:49;;;;;;;5.85;2.60;;;;;;;;;;5091871;28;20038;-71
2021/05/26 14:24:15;;;;;;;9.65;2.55;;;;;;;;;;5092349;28;20372;-71
2021/05/26 14:26:42;;;;;;;6.80;2.78;;;;;;;;;;5092257;28;20499;-70
2021/05/26 14:29:08;;;;;;;5.88;2.55;;;;;;;;;;5090595;28;20028;-70
2021/05/26 14:31:35;;;;;;;6.75;2.40;;;;;;;;;;5092016;28;20043;-71
2021/05/26 14:34:01;;;;;;;5.30;2.45;;;;;;;;;;5091054;28;20334;-72
2021/05/26 14:36:29;;;;;;;7.03;2.47;;;;;;;;;;5090186;28;20341;-71
2021/05/26 14:41:22;;;;;;;7.70;2.65;;;;;;;;;;5093422;28;20077;-71
2021/05/26 14:43:48;;;;;;;5.07;2.28;;;;;;;;;;5094310;28;20020;-71
2021/05/26 14:46:18;;;;;;;10.18;2.78;;;;;;;;;;5096196;28;20105;-71
2021/05/26 14:48:44;;;;;;;8.15;2.38;;;;;;;;;;5091680;28;20024;-72
2021/05/26 14:51:14;;;;;;;8.10;2.97;;;;;;;;;;5094182;28;20042;-71
2021/05/26 14:53:41;;;;;;;5.97;3.08;;;;;;;;;;5095624;28;20016;-72
2021/05/26 14:56:07;;;;;;;5.70;2.38;;;;;;;;;;5095262;28;20038;-70
2021/05/26 14:58:34;;;;;;;5.60;2.40;;;;;;;;;;5095726;28;20027;-71
2021/05/26 15:01:00;;;;;;;4.82;2.60;;;;;;;;;;5094215;28;20422;-70
2021/05/26 15:03:26;;;;;;;4.60;2.17;;;;;;;;;;5095270;28;20016;-71
2021/05/26 15:05:52;;;;;;;6.47;3.10;;;;;;;;;;5094491;28;20078;-71
2021/05/26 15:08:23;;;;;;;7.28;2.90;;;;;;;;;;5091957;28;20047;-72
2021/05/26 15:10:50;;;;;;;6.18;2.53;;;;;;;;;;5074471;28;20021;-70
2021/05/26 15:13:16;;;;;;;5.63;2.45;;;;;;;;;;5079181;28;20115;-71
2021/05/26 15:15:47;;;;;;;5.53;3.00;;;;;;;;;;5095139;28;20366;-71
2021/05/26 15:18:14;;;;;;;7.63;2.63;;;;;;;;;;5094887;28;20018;-71
2021/05/26 15:20:41;;;;;;;6.00;2.60;;;;;;;;;;5093857;28;20039;-70
2021/05/26 15:23:07;;;;;;;8.57;2.78;;;;;;;;;;5094159;28;20024;-70
2021/05/26 15:25:34;;;;;;;4.18;2.70;;;;;;;;;;5093729;28;20413;-71
2021/05/26 15:28:00;;;;;;;2.95;2.00;;;;;;;;;;5095437;28;20020;-70
2021/05/26 15:30:26;;;;;;;6.50;2.60;;;;;;;;;;5092872;28;20027;-71
2021/05/26 15:32:55;;;;;;;7.28;2.42;;;;;;;;;;5087151;28;20050;-72
2021/05/26 15:35:22;;;;;;;6.18;3.00;;;;;;;;;;5093539;28;20113;-74
2021/05/26 15:37:48;;;;;;;4.80;3.10;;;;;;;;;;5093676;28;20028;-73
2021/05/26 15:40:14;;;;;;;6.43;2.92;;;;;;;;;;5093237;28;20024;-72
2021/05/26 15:42:40;;;;;;;5.85;2.13;;;;;;;;;;5093332;28;20381;-71
2021/05/26 15:45:07;;;;;;;5.20;3.20;;;;;;;;;;5092891;28;20020;-72
2021/05/26 15:47:33;;;;;;;4.03;2.33;;;;;;;;;;5093356;28;20570;-71
2021/05/26 15:50:00;;;;;;;6.05;2.80;;;;;;;;;;5093782;28;20033;-71